createdAt,value
2018-08-24T00:01:16.944Z,99805.02
2018-08-24T00:03:45.960Z,99801.08
2018-08-24T00:06:15.010Z,99806.76
2018-08-24T00:08:44.028Z,99801.50
2018-08-24T00:11:12.956Z,99799.83
2018-08-24T00:13:42.020Z,99812.84
2018-08-24T00:16:11.074Z,99813.91
2018-08-24T00:18:40.016Z,99812.73
2018-08-24T00:21:08.971Z,99808.91
2018-08-24T00:23:37.932Z,99809.17
2018-08-24T00:26:06.972Z,99806.07
2018-08-24T00:28:35.916Z,99805.31
2018-08-24T00:31:04.923Z,99809.39
2018-08-24T00:33:33.872Z,99805.01
2018-08-24T00:36:02.828Z,99808.79
2018-08-24T00:38:31.837Z,99816.13
2018-08-24T00:41:00.774Z,99807.76
2018-08-24T00:43:29.772Z,99812.59
2018-08-24T00:45:58.711Z,99813.35
2018-08-24T00:48:27.709Z,99806.20
2018-08-24T00:50:56.631Z,99802.41
2018-08-24T00:53:25.568Z,99795.55
2018-08-24T00:55:54.512Z,99799.33
2018-08-24T00:58:23.664Z,99792.22
2018-08-24T01:00:56.656Z,99793.05
2018-08-24T01:03:25.605Z,99792.44
2018-08-24T01:05:54.657Z,99794.03
2018-08-24T01:08:23.591Z,99790.95
2018-08-24T01:10:52.632Z,99791.48
2018-08-24T01:13:21.581Z,99790.72
2018-08-24T01:15:52.558Z,99801.69
2018-08-24T01:18:23.620Z,99798.53
2018-08-24T01:20:54.635Z,99805.25
2018-08-24T01:23:24.888Z,99797.48
2018-08-24T01:25:53.864Z,99800.73
2018-08-24T01:28:23.244Z,99793.32
2018-08-24T01:30:52.494Z,99793.77
2018-08-24T01:33:21.488Z,99791.22
2018-08-24T01:35:50.549Z,99784.11
2018-08-24T01:38:19.539Z,99781.92
2018-08-24T01:40:48.624Z,99784.11
2018-08-24T01:43:17.560Z,99782.97
2018-08-24T01:45:46.482Z,99774.42
2018-08-24T01:48:15.485Z,99773.06
2018-08-24T01:50:44.437Z,99774.81
2018-08-24T01:53:13.393Z,99778.97
2018-08-24T01:55:42.377Z,99775.42
2018-08-24T01:58:11.388Z,99777.75
2018-08-24T02:00:40.529Z,99773.67
2018-08-24T02:03:09.475Z,99777.67
2018-08-24T02:05:38.427Z,99773.77
2018-08-24T02:08:07.359Z,99774.28
2018-08-24T02:10:36.303Z,99782.45
2018-08-24T02:13:10.414Z,99787.27
2018-08-24T02:15:44.548Z,99784.25
2018-08-24T02:18:18.952Z,99783.16
2018-08-24T02:20:53.008Z,99784.95
2018-08-24T02:23:22.037Z,99788.45
2018-08-24T02:25:51.051Z,99781.80
2018-08-24T02:28:20.048Z,99785.78
2018-08-24T02:30:49.035Z,99786.47
2018-08-24T02:33:18.133Z,99789.50
2018-08-24T02:35:47.132Z,99783.23
2018-08-24T02:38:16.150Z,99783.14
2018-08-24T02:40:45.170Z,99783.98
2018-08-24T02:43:14.149Z,99782.39
2018-08-24T02:45:43.133Z,99778.75
2018-08-24T02:48:12.147Z,99780.64
2018-08-24T02:50:41.079Z,99772.13
2018-08-24T02:53:10.144Z,99775.90
2018-08-24T02:55:39.181Z,99775.90
2018-08-24T02:58:08.174Z,99772.56
2018-08-24T03:00:37.188Z,99772.70
2018-08-24T03:03:06.197Z,99783.64
2018-08-24T03:05:35.362Z,99787.93
2018-08-24T03:08:04.220Z,99790.65
2018-08-24T03:10:33.245Z,99783.73
2018-08-24T03:13:02.286Z,99783.73
2018-08-24T03:15:31.288Z,99787.06
2018-08-24T03:18:00.229Z,99780.48
2018-08-24T03:20:29.265Z,99786.97
2018-08-24T03:22:58.356Z,99788.02
2018-08-24T03:25:27.405Z,99783.42
2018-08-24T03:27:56.520Z,99787.80
2018-08-24T03:30:25.517Z,99791.57
2018-08-24T03:32:54.520Z,99790.83
2018-08-24T03:35:23.525Z,99789.78
2018-08-24T03:37:52.500Z,99783.11
2018-08-24T03:40:21.509Z,99788.11
2018-08-24T03:42:50.501Z,99788.17
2018-08-24T03:45:19.595Z,99781.77
2018-08-24T03:47:48.588Z,99783.12
2018-08-24T03:50:17.513Z,99777.38
2018-08-24T03:52:46.572Z,99780.50
2018-08-24T03:55:15.516Z,99780.95
2018-08-24T03:57:44.508Z,99787.36
2018-08-24T04:00:18.220Z,99797.20
2018-08-24T04:02:47.720Z,99790.44
2018-08-24T04:05:17.216Z,99795.13
2018-08-24T04:07:46.288Z,99798.77
2018-08-24T04:10:15.338Z,99809.95
2018-08-24T04:12:44.397Z,99806.47
2018-08-24T04:15:13.355Z,99795.56
2018-08-24T04:17:43.988Z,99802.94
2018-08-24T04:20:14.026Z,99810.48
2018-08-24T04:22:43.207Z,99804.70
2018-08-24T04:25:12.256Z,99808.27
2018-08-24T04:27:41.172Z,99807.13
2018-08-24T04:30:11.081Z,99800.58
2018-08-24T04:32:40.157Z,99804.95
2018-08-24T04:35:09.186Z,99800.76
2018-08-24T04:37:38.192Z,99802.94
2018-08-24T04:40:07.183Z,99796.13
2018-08-24T04:42:36.200Z,99795.19
2018-08-24T04:45:05.148Z,99794.95
2018-08-24T04:47:34.185Z,99798.14
2018-08-24T04:50:03.258Z,99803.77
2018-08-24T04:52:32.316Z,99796.33
2018-08-24T04:55:01.353Z,99794.80
2018-08-24T04:57:30.344Z,99792.57
2018-08-24T04:59:59.316Z,99792.83
2018-08-24T05:02:28.348Z,99797.44
2018-08-24T05:04:57.455Z,99796.97
2018-08-24T05:07:26.516Z,99793.05
2018-08-24T05:09:55.562Z,99790.17
2018-08-24T05:12:24.572Z,99789.60
2018-08-24T05:14:53.619Z,99797.20
2018-08-24T05:17:22.675Z,99790.84
2018-08-24T05:19:51.620Z,99797.08
2018-08-24T05:22:20.684Z,99800.56
2018-08-24T05:24:49.684Z,99790.34
2018-08-24T05:27:18.673Z,99794.87
2018-08-24T05:29:47.694Z,99792.89
2018-08-24T05:32:16.627Z,99799.20
2018-08-24T05:34:45.572Z,99795.96
2018-08-24T05:37:14.624Z,99796.34
2018-08-24T05:39:43.691Z,99798.23
2018-08-24T05:42:12.740Z,99798.50
2018-08-24T05:44:41.868Z,99796.23
2018-08-24T05:47:10.992Z,99799.97
2018-08-24T05:49:39.938Z,99797.84
2018-08-24T05:52:08.893Z,99799.73
2018-08-24T05:54:37.938Z,99797.14
2018-08-24T05:57:06.952Z,99802.27
2018-08-24T05:59:35.899Z,99799.52
2018-08-24T06:02:04.851Z,99800.56
2018-08-24T06:04:33.850Z,99801.09
2018-08-24T06:07:02.868Z,99803.27
2018-08-24T06:09:31.919Z,99806.53
2018-08-24T06:12:00.861Z,99800.45
2018-08-24T06:14:29.856Z,99801.97
2018-08-24T06:17:03.804Z,99799.33
2018-08-24T06:19:32.799Z,99803.28
2018-08-24T06:22:01.904Z,99808.16
2018-08-24T06:24:30.880Z,99801.60
2018-08-24T06:27:00.037Z,99808.78
2018-08-24T06:29:29.082Z,99810.77
2018-08-24T06:31:58.101Z,99808.25
2018-08-24T06:34:27.038Z,99809.34
2018-08-24T06:36:56.080Z,99811.91
2018-08-24T06:39:25.003Z,99808.38
2018-08-24T06:41:54.070Z,99804.02
2018-08-24T06:44:22.991Z,99805.63
2018-08-24T06:46:51.998Z,99806.82
2018-08-24T06:49:20.948Z,99807.42
2018-08-24T06:51:49.895Z,99805.91
2018-08-24T06:54:19.017Z,99800.49
2018-08-24T06:56:48.020Z,99805.39
2018-08-24T06:59:17.065Z,99809.86
2018-08-24T07:01:46.016Z,99800.48
2018-08-24T07:04:14.992Z,99807.57
2018-08-24T07:06:44.404Z,99807.81
2018-08-24T07:09:13.345Z,99808.17
2018-08-24T07:11:42.406Z,99804.23
2018-08-24T07:14:11.409Z,99802.33
2018-08-24T07:16:40.340Z,99804.50
2018-08-24T07:19:09.296Z,99807.16
2018-08-24T07:21:38.288Z,99809.48
2018-08-24T07:24:07.288Z,99807.97
2018-08-24T07:26:36.281Z,99803.63
2018-08-24T07:29:05.448Z,99800.81
2018-08-24T07:31:34.381Z,99800.46
2018-08-24T07:34:03.495Z,99804.28
2018-08-24T07:36:32.447Z,99810.69
2018-08-24T07:39:01.482Z,99809.80
2018-08-24T07:41:30.551Z,99815.22
2018-08-24T07:43:59.472Z,99803.81
2018-08-24T07:46:28.521Z,99803.67
2018-08-24T07:48:57.525Z,99800.60
2018-08-24T07:51:26.581Z,99805.28
2018-08-24T07:53:55.556Z,99799.59
2018-08-24T07:56:24.483Z,99796.59
2018-08-24T07:58:53.500Z,99795.87
2018-08-24T08:01:22.581Z,99789.71
2018-08-24T08:03:51.604Z,99788.66
2018-08-24T08:06:20.658Z,99794.63
2018-08-24T08:08:50.033Z,99794.58
2018-08-24T08:11:18.979Z,99797.36
2018-08-24T08:13:48.008Z,99795.52
2018-08-24T08:16:16.959Z,99795.84
2018-08-24T08:18:45.919Z,99791.20
2018-08-24T08:21:15.034Z,99786.94
2018-08-24T08:23:43.983Z,99779.08
2018-08-24T08:26:12.936Z,99780.63
2018-08-24T08:28:41.891Z,99777.01
2018-08-24T08:31:10.888Z,99774.93
2018-08-24T08:33:39.841Z,99768.59
2018-08-24T08:36:08.928Z,99769.64
2018-08-24T08:38:37.997Z,99770.02
2018-08-24T08:41:07.240Z,99763.54
2018-08-24T08:43:36.281Z,99764.21
2018-08-24T08:46:05.313Z,99754.63
2018-08-24T08:48:34.324Z,99754.66
2018-08-24T08:51:03.288Z,99760.80
2018-08-24T08:53:32.358Z,99758.45
2018-08-24T08:56:01.457Z,99747.11
2018-08-24T08:58:30.516Z,99746.45
2018-08-24T09:00:59.495Z,99751.48
2018-08-24T09:03:28.584Z,99746.27
2018-08-24T09:05:57.591Z,99743.13
2018-08-24T09:08:26.558Z,99747.20
2018-08-24T09:10:55.501Z,99745.24
2018-08-24T09:13:24.561Z,99748.94
2018-08-24T09:15:53.602Z,99739.38
2018-08-24T09:18:27.843Z,99738.97
2018-08-24T09:21:01.908Z,99739.63
2018-08-24T09:23:36.145Z,99736.59
2018-08-24T09:26:10.081Z,99728.79
2018-08-24T09:28:40.316Z,99733.37
2018-08-24T09:31:14.255Z,99724.78
2018-08-24T09:33:43.315Z,99727.97
2018-08-24T09:36:17.252Z,99730.06
2018-08-24T09:38:46.259Z,99731.28
2018-08-24T09:41:15.252Z,99721.70
2018-08-24T09:43:49.449Z,99724.50
2018-08-24T09:46:18.467Z,99720.47
2018-08-24T09:48:52.647Z,99713.88
2018-08-24T09:51:25.848Z,99716.16
2018-08-24T09:54:00.024Z,99720.57
2018-08-24T09:56:29.800Z,99710.61
2018-08-24T09:58:59.136Z,99708.47
2018-08-24T10:01:33.052Z,99708.95
2018-08-24T10:04:07.113Z,99699.88
2018-08-24T10:06:41.377Z,99702.77
2018-08-24T10:09:12.005Z,99702.55
2018-08-24T10:11:41.072Z,99702.01
2018-08-24T10:14:10.448Z,99695.00
2018-08-24T10:16:39.623Z,99689.11
2018-08-24T10:19:11.656Z,99682.92
2018-08-24T10:21:40.822Z,99680.33
2018-08-24T10:24:10.225Z,99677.05
2018-08-24T10:26:39.539Z,99679.24
2018-08-24T10:29:09.159Z,99678.30
2018-08-24T10:31:38.581Z,99676.73
2018-08-24T10:34:07.561Z,99675.33
2018-08-24T10:36:36.663Z,99669.91
2018-08-24T10:39:08.666Z,99668.20
2018-08-24T10:41:37.516Z,99664.52
2018-08-24T10:44:06.845Z,99665.08
2018-08-24T10:46:35.846Z,99662.62
2018-08-24T10:49:04.856Z,99663.19
2018-08-24T10:51:33.884Z,99657.47
2018-08-24T10:54:02.893Z,99656.77
2018-08-24T10:56:31.983Z,99659.75
2018-08-24T10:59:00.990Z,99654.62
2018-08-24T11:01:30.093Z,99652.84
2018-08-24T11:03:59.084Z,99656.78
2018-08-24T11:06:28.095Z,99649.20
2018-08-24T11:08:57.129Z,99638.83
2018-08-24T11:11:26.160Z,99636.97
2018-08-24T11:13:55.177Z,99634.40
2018-08-24T11:16:24.125Z,99631.93
2018-08-24T11:18:53.073Z,99634.86
2018-08-24T11:21:22.103Z,99626.53
2018-08-24T11:23:51.098Z,99621.13
2018-08-24T11:26:20.201Z,99614.08
2018-08-24T11:28:49.149Z,99610.05
2018-08-24T11:31:18.180Z,99606.84
2018-08-24T11:33:47.197Z,99610.44
2018-08-24T11:36:16.224Z,99615.76
2018-08-24T11:38:45.244Z,99599.07
2018-08-24T11:41:15.255Z,99594.95
2018-08-24T11:43:44.323Z,99596.07
2018-08-24T11:46:13.532Z,99590.86
2018-08-24T11:48:42.737Z,99581.86
2018-08-24T11:51:11.927Z,99584.95
2018-08-24T11:53:40.983Z,99576.77
2018-08-24T11:56:10.074Z,99578.23
2018-08-24T11:58:39.146Z,99577.41
2018-08-24T12:01:08.378Z,99569.89
2018-08-24T12:03:37.467Z,99570.41
2018-08-24T12:06:06.696Z,99572.55
2018-08-24T12:08:35.749Z,99569.83
2018-08-24T12:11:04.802Z,99565.34
2018-08-24T12:13:33.922Z,99558.47
2018-08-24T12:16:03.075Z,99558.84
2018-08-24T12:18:32.391Z,99550.92
2018-08-24T12:21:01.422Z,99546.06
2018-08-24T12:23:30.574Z,99545.56
2018-08-24T12:25:59.638Z,99544.31
2018-08-24T12:28:28.657Z,99541.73
2018-08-24T12:30:57.876Z,99534.02
2018-08-24T12:33:26.893Z,99533.41
2018-08-24T12:35:55.916Z,99526.55
2018-08-24T12:38:24.933Z,99521.27
2018-08-24T12:40:54.038Z,99515.16
2018-08-24T12:43:23.167Z,99519.73
2018-08-24T12:45:52.202Z,99515.90
2018-08-24T12:48:21.298Z,99517.44
2018-08-24T12:50:50.388Z,99507.53
2018-08-24T12:53:19.403Z,99510.35
2018-08-24T12:55:48.411Z,99509.42
2018-08-24T12:58:17.542Z,99500.23
2018-08-24T13:00:46.575Z,99503.02
2018-08-24T13:03:15.618Z,99497.49
2018-08-24T13:05:44.676Z,99492.33
2018-08-24T13:08:13.752Z,99490.02
2018-08-24T13:10:42.777Z,99490.84
2018-08-24T13:13:11.742Z,99484.38
2018-08-24T13:15:40.855Z,99480.73
2018-08-24T13:18:12.525Z,99484.83
2018-08-24T13:20:41.657Z,99481.77
2018-08-24T13:23:10.695Z,99473.47
2018-08-24T13:25:39.659Z,99468.70
2018-08-24T13:28:08.749Z,99466.69
2018-08-24T13:30:37.754Z,99465.32
2018-08-24T13:33:06.976Z,99467.97
2018-08-24T13:35:35.993Z,99464.73
2018-08-24T13:38:05.114Z,99468.22
2018-08-24T13:40:34.159Z,99466.41
2018-08-24T13:43:03.197Z,99461.48
2018-08-24T13:45:32.208Z,99455.75
2018-08-24T13:48:01.368Z,99461.79
2018-08-24T13:50:31.508Z,99457.38
2018-08-24T13:53:00.505Z,99453.27
2018-08-24T13:55:29.689Z,99458.30
2018-08-24T13:57:58.818Z,99451.47
2018-08-24T14:00:28.053Z,99455.34
2018-08-24T14:02:57.480Z,99448.29
2018-08-24T14:05:26.502Z,99450.80
2018-08-24T14:07:55.596Z,99446.30
2018-08-24T14:10:24.596Z,99447.31
2018-08-24T14:12:53.660Z,99448.70
2018-08-24T14:15:22.763Z,99442.30
2018-08-24T14:17:52.269Z,99437.03
2018-08-24T14:20:22.529Z,99434.98
2018-08-24T14:22:51.742Z,99434.83
2018-08-24T14:25:20.992Z,99434.70
2018-08-24T14:27:49.982Z,99433.20
2018-08-24T14:30:19.029Z,99434.46
2018-08-24T14:32:48.056Z,99431.33
2018-08-24T14:35:17.045Z,99424.97
2018-08-24T14:37:46.044Z,99422.12
2018-08-24T14:40:15.033Z,99424.81
2018-08-24T14:42:44.075Z,99392.14
2018-08-24T14:45:13.129Z,99418.61
2018-08-24T14:47:42.137Z,99420.11
2018-08-24T14:50:11.173Z,99414.72
2018-08-24T14:52:40.156Z,99417.59
2018-08-24T14:55:09.233Z,99408.77
2018-08-24T14:57:38.248Z,99410.55
2018-08-24T15:00:07.433Z,99398.70
2018-08-24T15:02:36.390Z,99403.11
2018-08-24T15:05:07.636Z,99399.60
2018-08-24T15:07:36.686Z,99402.62
2018-08-24T15:10:10.257Z,99394.62
2018-08-24T15:12:39.879Z,99392.92
2018-08-24T15:15:10.261Z,99387.69
2018-08-24T15:17:39.294Z,99388.00
2018-08-24T15:20:08.480Z,99387.48
2018-08-24T15:22:37.615Z,99389.14
2018-08-24T15:25:06.686Z,99386.20
2018-08-24T15:27:35.640Z,99389.98
2018-08-24T15:30:04.674Z,99391.73
2018-08-24T15:32:33.628Z,99385.72
2018-08-24T15:35:02.736Z,99387.75
2018-08-24T15:37:31.711Z,99385.91
2018-08-24T15:40:00.747Z,99385.16
2018-08-24T15:42:29.733Z,99384.91
2018-08-24T15:44:58.737Z,99387.67
2018-08-24T15:47:27.769Z,99387.77
2018-08-24T15:49:56.850Z,99380.98
2018-08-24T15:52:25.820Z,99378.39
2018-08-24T15:54:54.777Z,99376.33
2018-08-24T15:57:23.901Z,99377.34
2018-08-24T15:59:52.956Z,99373.05
2018-08-24T16:02:22.040Z,99374.03
2018-08-24T16:04:51.052Z,99378.28
2018-08-24T16:07:20.026Z,99375.48
2018-08-24T16:09:49.045Z,99378.08
2018-08-24T16:12:18.085Z,99378.80
2018-08-24T16:14:47.049Z,99378.91
2018-08-24T16:17:15.994Z,99376.20
2018-08-24T16:19:45.013Z,99384.08
2018-08-24T16:22:14.004Z,99378.44
2018-08-24T16:24:42.957Z,99378.06
2018-08-24T16:27:16.081Z,99374.09
2018-08-24T16:29:45.163Z,99376.25
2018-08-24T16:32:14.246Z,99377.54
2018-08-24T16:34:43.307Z,99384.34
2018-08-24T16:37:12.283Z,99378.19
2018-08-24T16:39:41.354Z,99386.98
2018-08-24T16:42:10.347Z,99381.94
2018-08-24T16:44:39.447Z,99385.73
2018-08-24T16:47:08.460Z,99383.43
2018-08-24T16:49:37.486Z,99387.77
2018-08-24T16:52:06.476Z,99391.04
2018-08-24T16:54:35.434Z,99390.39
2018-08-24T16:57:04.670Z,99383.67
2018-08-24T16:59:33.710Z,99382.16
2018-08-24T17:02:02.903Z,99380.12
2018-08-24T17:04:31.932Z,99390.42
2018-08-24T17:07:01.000Z,99391.36
2018-08-24T17:09:29.957Z,99386.52
2018-08-24T17:11:59.046Z,99389.34
2018-08-24T17:14:28.106Z,99388.90
2018-08-24T17:16:57.143Z,99388.93
2018-08-24T17:19:26.205Z,99391.73
2018-08-24T17:21:55.367Z,99393.19
2018-08-24T17:24:24.456Z,99394.59
2018-08-24T17:26:53.522Z,99399.31
2018-08-24T17:29:22.648Z,99391.37
2018-08-24T17:31:51.687Z,99393.02
2018-08-24T17:34:20.763Z,99390.81
2018-08-24T17:36:49.783Z,99401.28
2018-08-24T17:39:18.825Z,99392.78
2018-08-24T17:41:48.049Z,99395.80
2018-08-24T17:44:17.029Z,99395.27
2018-08-24T17:46:46.061Z,99399.66
2018-08-24T17:49:15.184Z,99401.88
2018-08-24T17:51:44.224Z,99405.44
2018-08-24T17:54:13.557Z,99386.50
2018-08-24T17:56:44.152Z,99412.30
2018-08-24T17:59:13.339Z,99405.72
2018-08-24T18:01:42.872Z,99415.89
2018-08-24T18:04:12.387Z,99416.70
2018-08-24T18:06:41.477Z,99422.73
2018-08-24T18:09:11.795Z,99417.78
2018-08-24T18:11:41.579Z,99418.91
2018-08-24T18:14:11.021Z,99423.26
2018-08-24T18:16:40.290Z,99421.88
2018-08-24T18:19:09.415Z,99422.96
2018-08-24T18:21:39.411Z,99426.54
2018-08-24T18:24:08.583Z,99427.62
2018-08-24T18:26:37.768Z,99426.50
2018-08-24T18:29:07.054Z,99428.70
2018-08-24T18:31:36.160Z,99428.69
2018-08-24T18:34:05.372Z,99434.73
2018-08-24T18:36:34.576Z,99430.88
2018-08-24T18:39:04.557Z,99430.84
2018-08-24T18:41:33.779Z,99428.38
2018-08-24T18:44:02.990Z,99437.14
2018-08-24T18:46:32.276Z,99437.42
2018-08-24T18:49:01.596Z,99439.30
2018-08-24T18:51:30.951Z,99434.08
2018-08-24T18:54:00.300Z,99444.77
2018-08-24T18:56:29.465Z,99440.08
2018-08-24T18:58:58.515Z,99444.22
2018-08-24T19:01:27.789Z,99445.25
2018-08-24T19:03:57.164Z,99454.00
2018-08-24T19:06:26.480Z,99453.20
2018-08-24T19:08:55.807Z,99459.34
2018-08-24T19:11:30.048Z,99462.12
2018-08-24T19:13:59.501Z,99456.40
2018-08-24T19:16:28.812Z,99460.02
2018-08-24T19:19:03.253Z,99455.09
2018-08-24T19:21:37.656Z,99459.23
2018-08-24T19:24:07.072Z,99459.27
2018-08-24T19:26:36.376Z,99462.28
2018-08-24T19:29:10.691Z,99456.23
2018-08-24T19:31:40.321Z,99457.90
2018-08-24T19:34:10.351Z,99455.95
2018-08-24T19:36:40.148Z,99455.98
2018-08-24T19:39:11.783Z,99450.75
2018-08-24T19:41:46.199Z,99445.54
2018-08-24T19:44:15.867Z,99448.02
2018-08-24T19:46:45.271Z,99450.48
2018-08-24T19:49:18.009Z,99446.62
2018-08-24T19:51:47.381Z,99452.13
2018-08-24T19:54:17.362Z,99447.99
2018-08-24T19:56:47.282Z,99450.77
2018-08-24T19:59:17.602Z,99446.63
2018-08-24T20:01:47.082Z,99453.49
2018-08-24T20:04:16.404Z,99451.31
2018-08-24T20:06:51.103Z,99452.95
2018-08-24T20:09:25.832Z,99466.69
2018-08-24T20:11:55.126Z,99459.81
2018-08-24T20:14:29.370Z,99457.33
2018-08-24T20:17:04.198Z,99462.52
2018-08-24T20:19:33.541Z,99455.13
2018-08-24T20:22:02.884Z,99461.73
2018-08-24T20:24:32.440Z,99457.63
2018-08-24T20:27:01.687Z,99458.45
2018-08-24T20:29:30.971Z,99459.81
2018-08-24T20:32:00.278Z,99451.02
2018-08-24T20:34:29.562Z,99456.80
2018-08-24T20:36:58.865Z,99449.67
2018-08-24T20:39:28.150Z,99445.80
2018-08-24T20:41:57.490Z,99451.05
2018-08-24T20:44:26.776Z,99449.38
2018-08-24T20:46:56.054Z,99454.59
2018-08-24T20:49:25.380Z,99454.60
2018-08-24T20:51:54.674Z,99458.16
2018-08-24T20:54:23.974Z,99452.14
2018-08-24T20:56:53.275Z,99454.31
2018-08-24T20:59:22.602Z,99456.20
2018-08-24T21:01:52.042Z,99463.06
2018-08-24T21:04:21.672Z,99461.38
2018-08-24T21:06:50.961Z,99458.09
2018-08-24T21:09:20.235Z,99458.05
2018-08-24T21:11:49.527Z,99462.47
2018-08-24T21:14:18.917Z,99462.75
2018-08-24T21:16:48.313Z,99456.12
2018-08-24T21:19:17.661Z,99460.52
2018-08-24T21:21:46.945Z,99461.86
2018-08-24T21:24:16.237Z,99461.02
2018-08-24T21:26:45.683Z,99473.07
2018-08-24T21:29:15.026Z,99467.58
2018-08-24T21:31:44.338Z,99466.98
2018-08-24T21:34:13.738Z,99461.63
2018-08-24T21:36:43.052Z,99465.17
2018-08-24T21:39:13.304Z,99468.42
2018-08-24T21:41:42.663Z,99469.41
2018-08-24T21:44:11.934Z,99466.39
2018-08-24T21:46:41.210Z,99469.61
2018-08-24T21:49:10.470Z,99469.08
2018-08-24T21:51:39.797Z,99462.48
2018-08-24T21:54:09.125Z,99461.66
2018-08-24T21:56:38.410Z,99461.33
2018-08-24T21:59:07.700Z,99451.67
2018-08-24T22:01:36.956Z,99448.93
2018-08-24T22:04:06.235Z,99445.94
2018-08-24T22:06:35.518Z,99450.53
2018-08-24T22:09:06.206Z,99452.70
2018-08-24T22:11:35.467Z,99455.41
2018-08-24T22:14:04.754Z,99446.86
2018-08-24T22:16:34.137Z,99445.17
2018-08-24T22:19:03.478Z,99439.64
2018-08-24T22:21:32.754Z,99439.64
2018-08-24T22:24:02.020Z,99433.34
2018-08-24T22:26:31.311Z,99430.33
2018-08-24T22:29:00.454Z,99428.38
2018-08-24T22:31:29.542Z,99429.18
2018-08-24T22:33:58.537Z,99428.64
2018-08-24T22:36:27.497Z,99428.58
2018-08-24T22:38:56.477Z,99431.03
2018-08-24T22:41:25.410Z,99427.72
2018-08-24T22:43:54.352Z,99423.02
2018-08-24T22:46:23.308Z,99422.44
2018-08-24T22:48:52.317Z,99417.16
2018-08-24T22:51:21.237Z,99424.50
2018-08-24T22:53:50.188Z,99415.44
2018-08-24T22:56:19.124Z,99414.87
2018-08-24T22:58:48.062Z,99415.38
2018-08-24T23:01:17.055Z,99415.30
2018-08-24T23:03:45.984Z,99420.16
2018-08-24T23:06:14.967Z,99420.70
2018-08-24T23:08:43.894Z,99423.94
2018-08-24T23:11:12.836Z,99409.98
2018-08-24T23:13:41.777Z,99409.08
2018-08-24T23:16:10.704Z,99407.96
2018-08-24T23:18:39.640Z,99408.47
2018-08-24T23:21:08.564Z,99407.34
2018-08-24T23:23:37.560Z,99406.97
2018-08-24T23:26:06.513Z,99406.61
2018-08-24T23:28:35.463Z,99401.11
2018-08-24T23:31:04.419Z,99395.09
2018-08-24T23:33:34.336Z,99395.59
2018-08-24T23:36:03.393Z,99396.09
2018-08-24T23:38:32.308Z,99401.56
2018-08-24T23:41:01.277Z,99402.14
2018-08-24T23:43:30.272Z,99399.11
2018-08-24T23:45:59.197Z,99391.41
2018-08-24T23:48:28.139Z,99393.86
2018-08-24T23:50:57.076Z,99390.50
2018-08-24T23:53:26.012Z,99390.20
2018-08-24T23:55:54.934Z,99383.84
2018-08-24T23:58:23.872Z,99389.25
